createdAt,value
2022-12-23T00:00:21.701Z,21.48
2022-12-23T00:02:49.760Z,19.83
2022-12-23T00:05:18.074Z,22.08
2022-12-23T00:07:46.246Z,19.98
2022-12-23T00:10:14.259Z,21.55
2022-12-23T00:13:01.256Z,22.20
2022-12-23T00:15:29.244Z,23.63
2022-12-23T00:17:57.533Z,23.02
2022-12-23T00:20:25.533Z,21.13
2022-12-23T00:23:08.435Z,22.15
2022-12-23T00:25:45.026Z,20.58
2022-12-23T00:28:16.554Z,21.83
2022-12-23T00:30:48.489Z,21.20
2022-12-23T00:33:18.120Z,22.08
2022-12-23T00:35:46.841Z,21.40
2022-12-23T00:38:15.172Z,21.33
2022-12-23T00:41:00.976Z,22.80
2022-12-23T00:43:30.374Z,20.17
2022-12-23T00:45:58.462Z,20.55
2022-12-23T00:48:49.336Z,22.17
2022-12-23T00:51:17.343Z,22.85
2022-12-23T00:53:45.340Z,23.23
2022-12-23T00:56:13.342Z,22.83
2022-12-23T00:58:42.702Z,23.48
2022-12-23T01:01:28.596Z,21.95
2022-12-23T01:04:14.298Z,21.55
2022-12-23T01:06:42.334Z,23.33
2022-12-23T01:09:10.424Z,22.80
2022-12-23T01:11:38.554Z,23.15
2022-12-23T01:14:09.311Z,22.13
2022-12-23T01:16:38.079Z,23.08
2022-12-23T01:19:06.593Z,23.92
2022-12-23T01:21:34.788Z,23.85
2022-12-23T01:24:02.828Z,23.80
2022-12-23T01:26:30.823Z,24.65
2022-12-23T01:28:59.505Z,24.75
2022-12-23T01:31:29.315Z,26.00
2022-12-23T01:33:57.540Z,24.95
2022-12-23T01:36:25.628Z,27.00
2022-12-23T01:38:53.746Z,27.48
2022-12-23T01:41:38.641Z,26.08
2022-12-23T01:44:40.061Z,27.52
2022-12-23T01:47:12.023Z,28.30
2022-12-23T01:49:40.266Z,27.15
2022-12-23T01:52:08.411Z,28.10
2022-12-23T01:54:37.148Z,30.05
2022-12-23T01:57:05.289Z,29.42
2022-12-23T01:59:51.036Z,29.33
2022-12-23T02:02:38.945Z,29.60
2022-12-23T02:05:07.426Z,29.13
2022-12-23T02:07:53.676Z,33.92
2022-12-23T02:10:21.914Z,32.42
2022-12-23T02:12:53.373Z,33.13
2022-12-23T02:15:49.390Z,33.47
2022-12-23T02:18:35.139Z,32.85
2022-12-23T02:21:12.387Z,32.65
2022-12-23T02:23:59.284Z,32.28
2022-12-23T02:27:01.339Z,35.45
2022-12-23T02:29:58.113Z,34.65
2022-12-23T02:32:31.075Z,34.55
2022-12-23T02:35:06.080Z,35.05
2022-12-23T02:37:36.712Z,35.65
2022-12-23T02:40:10.016Z,35.63
2022-12-23T02:42:39.834Z,36.20
2022-12-23T02:45:10.881Z,35.15
2022-12-23T02:47:42.283Z,36.10
2022-12-23T02:50:13.084Z,36.47
2022-12-23T02:52:42.851Z,35.10
2022-12-23T02:55:15.668Z,35.00
2022-12-23T02:57:46.810Z,34.97
2022-12-23T03:00:15.995Z,36.53
2022-12-23T03:02:45.667Z,35.25
2022-12-23T03:05:28.457Z,36.47
2022-12-23T03:07:59.475Z,36.05
2022-12-23T03:10:34.591Z,35.97
2022-12-23T03:13:10.148Z,36.13
2022-12-23T03:15:42.561Z,35.67
2022-12-23T03:18:17.866Z,37.28
2022-12-23T03:20:52.276Z,38.08
2022-12-23T03:23:24.555Z,36.20
2022-12-23T03:28:29.541Z,36.60
2022-12-23T03:30:58.780Z,35.38
2022-12-23T03:33:30.900Z,39.22
2022-12-23T03:36:01.731Z,38.22
2022-12-23T03:38:30.814Z,36.25
2022-12-23T03:41:02.808Z,35.75
2022-12-23T03:43:34.524Z,35.45
2022-12-23T03:46:05.962Z,36.65
2022-12-23T03:48:37.450Z,36.55
2022-12-23T03:51:10.879Z,36.78
2022-12-23T03:53:40.457Z,38.67
2022-12-23T03:56:11.376Z,37.88
2022-12-23T03:58:43.619Z,38.85
2022-12-23T04:03:45.973Z,36.75
2022-12-23T04:06:17.079Z,42.25
2022-12-23T04:08:45.690Z,36.28
2022-12-23T04:11:13.856Z,36.15
2022-12-23T04:13:42.314Z,35.17
2022-12-23T04:16:11.197Z,36.88
2022-12-23T04:18:39.314Z,36.63
2022-12-23T04:21:08.705Z,37.65
2022-12-23T04:23:36.951Z,35.55
2022-12-23T04:26:05.374Z,36.13
2022-12-23T04:28:33.355Z,36.03
2022-12-23T04:31:01.442Z,32.40
2022-12-23T04:33:29.544Z,35.95
2022-12-23T04:36:00.229Z,33.28
2022-12-23T04:38:29.656Z,36.40
2022-12-23T04:40:57.694Z,35.17
2022-12-23T04:43:25.759Z,32.85
2022-12-23T04:45:53.861Z,34.03
2022-12-23T04:48:22.039Z,32.42
2022-12-23T04:50:50.096Z,34.38
2022-12-23T04:53:18.646Z,34.45
2022-12-23T04:55:52.375Z,32.83
2022-12-23T04:58:22.256Z,29.65
2022-12-23T05:00:50.483Z,30.52
2022-12-23T05:03:19.047Z,31.08
2022-12-23T05:05:47.243Z,31.05
2022-12-23T05:08:15.345Z,31.60
2022-12-23T05:10:43.376Z,29.48
2022-12-23T05:13:12.833Z,28.70
2022-12-23T05:15:41.295Z,32.45
2022-12-23T05:18:09.458Z,27.63
2022-12-23T05:20:37.655Z,31.27
2022-12-23T05:23:05.710Z,30.02
2022-12-23T05:25:34.249Z,32.38
2022-12-23T05:28:02.300Z,29.20
2022-12-23T05:30:32.081Z,29.67
2022-12-23T05:33:00.431Z,30.45
2022-12-23T05:35:29.266Z,30.25
2022-12-23T05:37:57.654Z,28.58
2022-12-23T05:40:30.445Z,30.38
2022-12-23T05:43:00.578Z,30.60
2022-12-23T05:45:30.892Z,29.27
2022-12-23T05:48:00.265Z,29.50
2022-12-23T05:50:28.380Z,30.20
2022-12-23T05:52:57.756Z,28.52
2022-12-23T05:55:25.769Z,30.58
2022-12-23T05:57:54.845Z,28.65
2022-12-23T06:00:23.097Z,28.55
2022-12-23T06:02:53.749Z,29.67
2022-12-23T06:05:23.883Z,29.10
2022-12-23T06:07:52.153Z,29.10
2022-12-23T06:10:20.400Z,27.88
2022-12-23T06:12:48.383Z,27.98
2022-12-23T06:15:16.780Z,26.25
2022-12-23T06:17:44.847Z,28.50
2022-12-23T06:20:20.045Z,29.58
2022-12-23T06:22:50.212Z,27.05
2022-12-23T06:25:18.362Z,27.00
2022-12-23T06:27:46.637Z,27.58
2022-12-23T06:30:15.224Z,29.25
2022-12-23T06:32:43.240Z,29.08
2022-12-23T06:35:11.333Z,27.05
2022-12-23T06:37:39.467Z,29.42
2022-12-23T06:40:10.386Z,29.50
2022-12-23T06:42:38.614Z,28.70
2022-12-23T06:45:07.566Z,30.17
2022-12-23T06:47:35.613Z,30.80
2022-12-23T06:50:04.795Z,32.42
2022-12-23T06:52:32.817Z,29.70
2022-12-23T06:55:00.867Z,32.97
2022-12-23T06:57:30.665Z,33.72
2022-12-23T06:59:58.832Z,35.15
2022-12-23T07:02:27.106Z,35.00
2022-12-23T07:04:55.355Z,36.08
2022-12-23T07:07:23.561Z,36.13
2022-12-23T07:09:51.678Z,35.53
2022-12-23T07:12:19.849Z,36.88
2022-12-23T07:14:49.268Z,39.90
2022-12-23T07:17:17.851Z,43.42
2022-12-23T07:19:45.890Z,55.20
2022-12-23T07:22:13.955Z,47.30
2022-12-23T07:24:41.953Z,56.70
2022-12-23T07:27:10.849Z,53.72
2022-12-23T07:29:38.833Z,47.53
2022-12-23T07:32:08.319Z,44.53
2022-12-23T07:34:36.481Z,53.05
2022-12-23T07:37:04.656Z,55.65
2022-12-23T07:39:32.675Z,41.75
2022-12-23T07:42:33.905Z,58.05
2022-12-23T07:44:48.850Z,44.63
2022-12-23T07:47:18.215Z,47.95
2022-12-23T07:49:46.202Z,43.00
2022-12-23T07:52:14.191Z,46.83
2022-12-23T07:54:42.251Z,40.40
2022-12-23T07:57:10.455Z,39.83
2022-12-23T07:59:38.415Z,41.90
2022-12-23T08:02:06.787Z,53.42
2022-12-23T08:04:40.984Z,55.58
2022-12-23T08:07:12.384Z,48.53
2022-12-23T08:09:40.637Z,39.30
2022-12-23T08:12:08.757Z,47.85
2022-12-23T08:14:37.104Z,43.47
2022-12-23T08:17:05.301Z,43.75
2022-12-23T08:19:33.501Z,42.72
2022-12-23T08:22:03.222Z,43.25
2022-12-23T08:24:31.388Z,38.95
2022-12-23T08:26:59.614Z,43.50
2022-12-23T08:29:32.540Z,48.50
2022-12-23T08:32:04.065Z,62.83
2022-12-23T08:34:32.085Z,52.47
2022-12-23T08:37:00.126Z,47.65
2022-12-23T08:39:29.853Z,38.13
2022-12-23T08:41:57.923Z,35.15
2022-12-23T08:44:28.079Z,36.85
2022-12-23T08:46:59.302Z,28.63
2022-12-23T08:49:28.613Z,29.42
2022-12-23T08:51:56.673Z,29.80
2022-12-23T08:54:25.456Z,29.48
2022-12-23T08:56:55.221Z,25.90
2022-12-23T08:59:23.200Z,26.73
2022-12-23T09:01:51.756Z,27.00
2022-12-23T09:04:20.105Z,25.38
2022-12-23T09:06:48.162Z,26.25
2022-12-23T09:09:17.219Z,24.67
2022-12-23T09:11:45.280Z,24.02
2022-12-23T09:14:14.978Z,25.13
2022-12-23T09:16:43.096Z,24.50
2022-12-23T09:19:11.126Z,23.23
2022-12-23T09:21:39.268Z,25.70
2022-12-23T09:24:07.685Z,24.83
2022-12-23T09:26:35.742Z,22.58
2022-12-23T09:29:04.135Z,22.63
2022-12-23T09:31:37.417Z,22.42
2022-12-23T09:34:06.564Z,21.13
2022-12-23T09:36:34.892Z,24.17
2022-12-23T09:39:02.927Z,24.17
2022-12-23T09:41:36.430Z,24.42
2022-12-23T09:44:15.999Z,26.08
2022-12-23T09:46:48.961Z,22.48
2022-12-23T09:49:18.694Z,22.63
2022-12-23T09:51:48.027Z,24.77
2022-12-23T09:54:19.128Z,26.15
2022-12-23T09:56:50.562Z,22.45
2022-12-23T09:59:29.059Z,23.92
2022-12-23T10:02:02.016Z,22.15
2022-12-23T10:04:35.125Z,24.00
2022-12-23T10:07:23.556Z,22.48
2022-12-23T10:09:52.698Z,25.17
2022-12-23T10:12:40.234Z,22.75
2022-12-23T10:15:20.727Z,21.85
2022-12-23T10:17:52.064Z,22.52
2022-12-23T10:20:29.168Z,20.88
2022-12-23T10:22:58.407Z,23.73
2022-12-23T10:25:30.222Z,21.17
2022-12-23T10:27:58.310Z,22.65
2022-12-23T10:30:56.856Z,22.58
2022-12-23T10:33:21.160Z,20.80
2022-12-23T10:35:57.845Z,22.75
2022-12-23T10:38:47.197Z,21.17
2022-12-23T10:41:26.521Z,20.77
2022-12-23T10:44:11.133Z,20.05
2022-12-23T10:46:43.613Z,18.05
2022-12-23T10:49:20.512Z,17.00
2022-12-23T10:51:51.051Z,18.15
2022-12-23T10:54:22.397Z,16.83
2022-12-23T10:56:50.756Z,17.23
2022-12-23T10:59:24.585Z,17.20
2022-12-23T11:01:56.054Z,14.63
2022-12-23T11:04:32.088Z,15.48
2022-12-23T11:07:41.594Z,16.00
2022-12-23T11:09:52.141Z,16.08
2022-12-23T11:14:53.235Z,15.57
2022-12-23T11:17:23.075Z,17.05
2022-12-23T11:20:09.091Z,17.77
2022-12-23T11:22:38.364Z,16.55
2022-12-23T11:25:26.775Z,19.17
2022-12-23T11:27:57.874Z,16.70
2022-12-23T11:30:26.344Z,16.30
2022-12-23T11:32:54.517Z,17.20
2022-12-23T11:35:28.764Z,17.92
2022-12-23T11:37:57.729Z,16.80
2022-12-23T11:40:28.039Z,17.88
2022-12-23T11:42:59.011Z,17.75
2022-12-23T11:45:28.672Z,18.38
2022-12-23T11:47:57.207Z,16.90
2022-12-23T11:50:35.594Z,17.83
2022-12-23T11:53:14.851Z,17.27
2022-12-23T11:55:48.244Z,17.80
2022-12-23T11:58:20.384Z,18.65
2022-12-23T12:00:56.445Z,19.55
2022-12-23T12:03:28.441Z,19.52
2022-12-23T12:06:00.594Z,19.48
2022-12-23T12:08:32.854Z,19.02
2022-12-23T12:11:03.918Z,19.70
2022-12-23T12:13:34.216Z,18.25
2022-12-23T12:16:11.656Z,18.00
2022-12-23T12:18:41.109Z,18.52
2022-12-23T12:21:15.003Z,20.33
2022-12-23T12:23:45.464Z,19.83
2022-12-23T12:26:17.033Z,21.23
2022-12-23T12:28:47.156Z,19.90
2022-12-23T12:31:19.728Z,21.20
2022-12-23T12:33:50.655Z,20.48
2022-12-23T12:36:29.624Z,19.30
2022-12-23T12:38:58.985Z,21.48
2022-12-23T12:41:31.827Z,21.25
2022-12-23T12:44:14.086Z,23.13
2022-12-23T12:46:44.919Z,22.30
2022-12-23T12:49:16.550Z,21.55
2022-12-23T12:51:50.303Z,22.60
2022-12-23T12:54:24.686Z,21.92
2022-12-23T12:56:54.688Z,23.13
2022-12-23T12:59:24.706Z,22.20
2022-12-23T13:02:05.207Z,20.38
2022-12-23T13:04:47.884Z,19.77
2022-12-23T13:09:55.192Z,18.98
2022-12-23T13:12:27.239Z,19.70
2022-12-23T13:15:01.331Z,18.35
2022-12-23T13:17:33.556Z,18.88
2022-12-23T13:20:09.866Z,20.95
2022-12-23T13:22:39.926Z,19.48
2022-12-23T13:25:13.961Z,19.73
2022-12-23T13:27:45.997Z,19.98
2022-12-23T13:30:15.137Z,20.63
2022-12-23T13:33:01.855Z,20.83
2022-12-23T13:35:48.365Z,20.33
2022-12-23T13:38:29.954Z,19.13
2022-12-23T13:41:05.841Z,19.90
2022-12-23T13:43:41.573Z,17.17
2022-12-23T13:46:15.657Z,17.75
2022-12-23T13:48:49.417Z,18.30
2022-12-23T13:51:21.775Z,17.92
2022-12-23T13:54:02.427Z,16.85
2022-12-23T13:56:40.919Z,17.75
2022-12-23T13:59:10.822Z,16.77
2022-12-23T14:01:45.995Z,16.38
2022-12-23T14:04:32.146Z,17.17
2022-12-23T14:07:01.755Z,15.68
2022-12-23T14:09:33.603Z,15.57
2022-12-23T14:12:20.254Z,13.35
2022-12-23T14:15:13.463Z,14.52
2022-12-23T14:17:48.310Z,16.05
2022-12-23T14:20:26.315Z,14.63
2022-12-23T14:23:01.958Z,15.60
2022-12-23T14:25:38.471Z,17.27
2022-12-23T14:28:14.555Z,14.98
2022-12-23T14:30:45.735Z,15.20
2022-12-23T14:33:23.470Z,20.67
2022-12-23T14:35:57.199Z,20.90
2022-12-23T14:38:35.299Z,19.20
2022-12-23T14:41:38.291Z,15.40
2022-12-23T14:44:20.026Z,13.48
2022-12-23T14:46:57.503Z,15.18
2022-12-23T14:49:41.235Z,13.43
2022-12-23T14:52:44.391Z,13.10
2022-12-23T14:55:41.913Z,14.20
2022-12-23T14:58:40.717Z,12.73
2022-12-23T15:01:13.606Z,14.65
2022-12-23T15:03:44.751Z,13.93
2022-12-23T15:06:17.343Z,14.40
2022-12-23T15:08:47.796Z,15.88
2022-12-23T15:11:24.164Z,16.00
2022-12-23T15:13:55.121Z,15.50
2022-12-23T15:16:30.680Z,16.48
2022-12-23T15:19:02.122Z,14.18
2022-12-23T15:21:32.913Z,15.23
2022-12-23T15:24:01.336Z,15.65
2022-12-23T15:26:31.805Z,15.75
2022-12-23T15:29:01.717Z,15.48
2022-12-23T15:31:32.853Z,15.80
2022-12-23T15:34:03.990Z,14.32
2022-12-23T15:36:36.479Z,14.77
2022-12-23T15:39:09.866Z,14.55
2022-12-23T15:41:42.808Z,17.30
2022-12-23T15:44:15.313Z,18.73
2022-12-23T15:46:43.477Z,22.77
2022-12-23T15:49:12.322Z,22.20
2022-12-23T15:54:36.760Z,22.85
2022-12-23T15:57:05.824Z,24.52
2022-12-23T15:59:37.475Z,24.17
2022-12-23T16:02:49.817Z,22.98
2022-12-23T16:05:06.357Z,22.65
2022-12-23T16:07:36.504Z,21.48
2022-12-23T16:10:13.374Z,22.13
2022-12-23T16:12:42.481Z,21.27
2022-12-23T16:15:28.337Z,22.13
2022-12-23T16:18:14.297Z,22.48
2022-12-23T16:20:44.132Z,22.85
2022-12-23T16:23:13.118Z,23.95
2022-12-23T16:25:46.859Z,22.88
2022-12-23T16:28:23.061Z,23.00
2022-12-23T16:30:53.803Z,23.50
2022-12-23T16:33:36.491Z,23.02
2022-12-23T16:36:18.928Z,23.45
2022-12-23T16:41:15.463Z,23.80
2022-12-23T16:43:51.617Z,25.02
2022-12-23T16:46:23.723Z,23.77
2022-12-23T16:48:53.556Z,23.70
2022-12-23T16:51:24.536Z,24.52
2022-12-23T16:53:55.039Z,23.77
2022-12-23T16:56:25.200Z,25.55
2022-12-23T16:58:53.217Z,24.63
2022-12-23T17:01:24.209Z,24.20
2022-12-23T17:03:52.636Z,24.35
2022-12-23T17:06:21.351Z,24.73
2022-12-23T17:08:49.934Z,24.27
2022-12-23T17:11:19.678Z,22.40
2022-12-23T17:13:48.134Z,23.27
2022-12-23T17:16:19.875Z,23.10
2022-12-23T17:18:49.727Z,25.50
2022-12-23T17:21:21.453Z,27.27
2022-12-23T17:23:49.607Z,28.80
2022-12-23T17:26:17.808Z,27.27
2022-12-23T17:28:45.841Z,29.15
2022-12-23T17:31:16.304Z,29.42
2022-12-23T17:33:48.673Z,27.23
2022-12-23T17:36:17.625Z,30.75
2022-12-23T17:38:45.654Z,29.08
2022-12-23T17:41:17.601Z,29.52
2022-12-23T17:43:45.925Z,30.50
2022-12-23T17:46:14.382Z,29.85
2022-12-23T17:48:42.652Z,28.65
2022-12-23T17:51:14.838Z,28.75
2022-12-23T17:53:43.003Z,27.80
2022-12-23T17:56:13.701Z,26.52
2022-12-23T17:58:41.855Z,27.15
2022-12-23T18:01:17.562Z,26.33
2022-12-23T18:03:45.786Z,27.38
2022-12-23T18:06:17.062Z,27.13
2022-12-23T18:08:45.244Z,27.20
2022-12-23T18:11:18.345Z,25.92
2022-12-23T18:13:46.679Z,27.42
2022-12-23T18:16:14.688Z,28.23
2022-12-23T18:18:46.691Z,26.08
2022-12-23T18:21:21.652Z,25.90
2022-12-23T18:23:49.716Z,29.45
2022-12-23T18:26:17.963Z,28.23
2022-12-23T18:28:46.169Z,28.65
2022-12-23T18:31:16.123Z,29.88
2022-12-23T18:33:44.392Z,26.95
2022-12-23T18:36:22.851Z,28.40
2022-12-23T18:38:52.093Z,29.25
2022-12-23T18:41:20.381Z,27.88
2022-12-23T18:43:48.666Z,28.33
2022-12-23T18:46:16.972Z,29.02
2022-12-23T18:48:45.026Z,30.67
2022-12-23T18:51:15.428Z,27.95
2022-12-23T18:53:45.007Z,28.58
2022-12-23T18:56:27.933Z,29.85
2022-12-23T18:58:57.339Z,29.10
2022-12-23T19:01:25.471Z,28.50
2022-12-23T19:03:53.527Z,29.02
2022-12-23T19:06:21.496Z,29.88
2022-12-23T19:08:51.054Z,30.60
2022-12-23T19:11:21.237Z,31.77
2022-12-23T19:13:49.347Z,32.65
2022-12-23T19:16:19.133Z,32.95
2022-12-23T19:18:48.465Z,35.38
2022-12-23T19:21:17.426Z,33.92
2022-12-23T19:23:45.740Z,35.38
2022-12-23T19:26:15.913Z,36.17
2022-12-23T19:28:43.945Z,34.50
2022-12-23T19:31:13.213Z,34.72
2022-12-23T19:33:42.452Z,36.72
2022-12-23T19:36:11.386Z,35.08
2022-12-23T19:38:39.567Z,36.10
2022-12-23T19:41:08.193Z,36.10
2022-12-23T19:43:38.721Z,36.35
2022-12-23T19:46:08.861Z,36.55
2022-12-23T19:48:37.303Z,34.60
2022-12-23T19:51:07.648Z,38.22
2022-12-23T19:53:36.379Z,36.08
2022-12-23T19:56:06.771Z,34.40
2022-12-23T19:58:38.160Z,36.10
2022-12-23T20:01:10.646Z,35.80
2022-12-23T20:03:39.228Z,34.75
2022-12-23T20:06:08.888Z,37.50
2022-12-23T20:08:37.031Z,35.33
2022-12-23T20:11:09.838Z,34.13
2022-12-23T20:13:39.570Z,33.10
2022-12-23T20:16:08.429Z,34.72
2022-12-23T20:18:37.148Z,36.55
2022-12-23T20:21:07.001Z,37.17
2022-12-23T20:23:35.805Z,36.20
2022-12-23T20:26:04.859Z,38.50
2022-12-23T20:28:33.440Z,39.25
2022-12-23T20:31:08.128Z,39.13
2022-12-23T20:33:36.203Z,40.35
2022-12-23T20:36:04.650Z,42.90
2022-12-23T20:38:35.040Z,45.13
2022-12-23T20:41:03.825Z,45.20
2022-12-23T20:43:31.979Z,44.70
2022-12-23T20:46:00.055Z,41.33
2022-12-23T20:48:34.053Z,43.33
2022-12-23T20:51:05.599Z,43.33
2022-12-23T20:53:33.879Z,39.83
2022-12-23T20:56:02.358Z,42.85
2022-12-23T20:58:48.152Z,40.95
2022-12-23T21:01:16.217Z,42.30
2022-12-23T21:03:45.604Z,43.38
2022-12-23T21:06:13.579Z,46.13
2022-12-23T21:08:43.013Z,42.65
2022-12-23T21:11:11.607Z,43.67
2022-12-23T21:13:41.230Z,46.67
2022-12-23T21:16:11.843Z,44.58
2022-12-23T21:18:44.022Z,41.30
2022-12-23T21:21:13.691Z,45.65
2022-12-23T21:23:42.740Z,45.30
2022-12-23T21:26:13.656Z,44.10
2022-12-23T21:28:42.891Z,47.55
2022-12-23T21:31:11.168Z,44.85
2022-12-23T21:33:40.896Z,46.25
2022-12-23T21:36:11.768Z,45.80
2022-12-23T21:38:45.558Z,45.95
2022-12-23T21:41:17.530Z,45.55
2022-12-23T21:43:45.652Z,44.70
2022-12-23T21:46:16.154Z,42.20
2022-12-23T21:48:44.711Z,45.25
2022-12-23T21:51:14.599Z,44.25
2022-12-23T21:53:48.488Z,41.50
2022-12-23T21:56:17.790Z,45.05
2022-12-23T21:58:46.692Z,40.58
2022-12-23T22:01:16.347Z,43.28
2022-12-23T22:03:45.492Z,42.53
2022-12-23T22:06:15.216Z,43.90
2022-12-23T22:08:44.641Z,38.92
2022-12-23T22:11:14.436Z,38.95
2022-12-23T22:13:43.274Z,41.97
2022-12-23T22:16:12.314Z,43.63
2022-12-23T22:18:41.104Z,43.38
2022-12-23T22:21:10.993Z,40.20
2022-12-23T22:23:39.310Z,44.67
2022-12-23T22:26:09.807Z,38.83
2022-12-23T22:28:38.694Z,41.42
2022-12-23T22:31:08.629Z,43.85
2022-12-23T22:33:36.759Z,41.50
2022-12-23T22:36:05.261Z,38.92
2022-12-23T22:38:33.406Z,44.28
2022-12-23T22:41:01.470Z,47.70
2022-12-23T22:43:30.810Z,41.50
2022-12-23T22:46:00.341Z,39.00
2022-12-23T22:48:29.715Z,42.03
2022-12-23T22:51:03.015Z,39.00
2022-12-23T22:53:31.863Z,41.55
2022-12-23T22:56:00.248Z,40.33
2022-12-23T22:58:29.473Z,39.22
2022-12-23T23:00:59.079Z,38.50
2022-12-23T23:03:27.764Z,34.85
2022-12-23T23:06:00.135Z,38.40
2022-12-23T23:08:29.336Z,37.38
2022-12-23T23:10:58.234Z,35.45
2022-12-23T23:13:26.871Z,30.40
2022-12-23T23:15:57.200Z,35.05
2022-12-23T23:18:27.031Z,36.97
2022-12-23T23:20:55.235Z,37.10
2022-12-23T23:23:23.507Z,35.85
2022-12-23T23:25:51.728Z,37.65
2022-12-23T23:28:19.919Z,31.52
2022-12-23T23:30:48.473Z,33.85
2022-12-23T23:33:17.238Z,29.33
2022-12-23T23:35:46.686Z,29.85
2022-12-23T23:38:15.900Z,33.38
2022-12-23T23:40:43.947Z,33.30
2022-12-23T23:43:11.994Z,32.00
2022-12-23T23:45:40.575Z,32.70
2022-12-23T23:48:09.660Z,24.88
2022-12-23T23:50:37.818Z,29.38
2022-12-23T23:53:07.440Z,27.85
2022-12-23T23:55:35.441Z,25.13
2022-12-23T23:58:03.480Z,25.83
